<?xml version="1.0" encoding="UTF-8" standalone="no" ?>
<gpx xmlns="http://www.topografix.com/GPX/1/1" xmlns:xsi="http://www.w3.org/2001/XMLSchema-instance" xsi:schemaLocation="http://www.topografix.com/GPX/1/1 http://www.topografix.com/GPX/1/1/gpx.xsd" version="1.1" creator="VisuGPX - https://www.visugpx.com">
  <metadata>
    <name>reprise running</name>
    <desc><![CDATA[reprise running home]]></desc>
  </metadata>
  <trk>
    <name><![CDATA[20111120-170003(1)]]></name>
    <desc><![CDATA[Color:004000ff]]></desc>
    <trkseg>
      <trkpt lat="48.76709" lon="2.05502">
        <ele>159</ele>
        <time>2011-11-20T14:47:45Z</time>
      </trkpt>
      <trkpt lat="48.76697" lon="2.05509">
        <ele>159</ele>
        <time>2011-11-20T14:47:46Z</time>
      </trkpt>
      <trkpt lat="48.76708" lon="2.05519">
        <ele>160</ele>
        <time>2011-11-20T14:47:51Z</time>
      </trkpt>
      <trkpt lat="48.76709" lon="2.05527">
        <ele>160</ele>
        <time>2011-11-20T14:47:53Z</time>
      </trkpt>
      <trkpt lat="48.76728" lon="2.05532">
        <ele>160</ele>
        <time>2011-11-20T14:47:58Z</time>
      </trkpt>
      <trkpt lat="48.76733" lon="2.05536">
        <ele>160</ele>
        <time>2011-11-20T14:48:00Z</time>
      </trkpt>
      <trkpt lat="48.76629" lon="2.05494">
        <ele>159</ele>
        <time>2011-11-20T14:48:05Z</time>
      </trkpt>
      <trkpt lat="48.76635" lon="2.05505">
        <ele>160</ele>
        <time>2011-11-20T14:48:09Z</time>
      </trkpt>
      <trkpt lat="48.76646" lon="2.05514">
        <ele>160</ele>
        <time>2011-11-20T14:48:14Z</time>
      </trkpt>
      <trkpt lat="48.7665" lon="2.05518">
        <ele>160</ele>
        <time>2011-11-20T14:48:16Z</time>
      </trkpt>
      <trkpt lat="48.76654" lon="2.05522">
        <ele>160</ele>
        <time>2011-11-20T14:48:18Z</time>
      </trkpt>
      <trkpt lat="48.76665" lon="2.05531">
        <ele>160</ele>
        <time>2011-11-20T14:48:23Z</time>
      </trkpt>
      <trkpt lat="48.76669" lon="2.05535">
        <ele>160</ele>
        <time>2011-11-20T14:48:25Z</time>
      </trkpt>
      <trkpt lat="48.76679" lon="2.05547">
        <ele>160</ele>
        <time>2011-11-20T14:48:30Z</time>
      </trkpt>
      <trkpt lat="48.76688" lon="2.05555">
        <ele>160</ele>
        <time>2011-11-20T14:48:35Z</time>
      </trkpt>
      <trkpt lat="48.76694" lon="2.05562">
        <ele>160</ele>
        <time>2011-11-20T14:48:40Z</time>
      </trkpt>
      <trkpt lat="48.76704" lon="2.05573">
        <ele>160</ele>
        <time>2011-11-20T14:48:45Z</time>
      </trkpt>
      <trkpt lat="48.76716" lon="2.05584">
        <ele>161</ele>
        <time>2011-11-20T14:48:50Z</time>
      </trkpt>
      <trkpt lat="48.76727" lon="2.05592">
        <ele>161</ele>
        <time>2011-11-20T14:48:55Z</time>
      </trkpt>
      <trkpt lat="48.76738" lon="2.05601">
        <ele>161</ele>
        <time>2011-11-20T14:49:00Z</time>
      </trkpt>
      <trkpt lat="48.76748" lon="2.0561">
        <ele>161</ele>
        <time>2011-11-20T14:49:05Z</time>
      </trkpt>
      <trkpt lat="48.76752" lon="2.05615">
        <ele>160</ele>
        <time>2011-11-20T14:49:07Z</time>
      </trkpt>
      <trkpt lat="48.76762" lon="2.05624">
        <ele>161</ele>
        <time>2011-11-20T14:49:12Z</time>
      </trkpt>
      <trkpt lat="48.76773" lon="2.05636">
        <ele>161</ele>
        <time>2011-11-20T14:49:17Z</time>
      </trkpt>
      <trkpt lat="48.7678" lon="2.05643">
        <ele>161</ele>
        <time>2011-11-20T14:49:22Z</time>
      </trkpt>
      <trkpt lat="48.76785" lon="2.05643">
        <ele>161</ele>
        <time>2011-11-20T14:49:24Z</time>
      </trkpt>
      <trkpt lat="48.76798" lon="2.05651">
        <ele>160</ele>
        <time>2011-11-20T14:49:29Z</time>
      </trkpt>
      <trkpt lat="48.76795" lon="2.05668">
        <ele>160</ele>
        <time>2011-11-20T14:49:34Z</time>
      </trkpt>
      <trkpt lat="48.76785" lon="2.05682">
        <ele>160</ele>
        <time>2011-11-20T14:49:39Z</time>
      </trkpt>
      <trkpt lat="48.76775" lon="2.05694">
        <ele>160</ele>
        <time>2011-11-20T14:49:44Z</time>
      </trkpt>
      <trkpt lat="48.76771" lon="2.05699">
        <ele>160</ele>
        <time>2011-11-20T14:49:46Z</time>
      </trkpt>
      <trkpt lat="48.76762" lon="2.0571">
        <ele>160</ele>
        <time>2011-11-20T14:49:51Z</time>
      </trkpt>
      <trkpt lat="48.76752" lon="2.05721">
        <ele>160</ele>
        <time>2011-11-20T14:49:56Z</time>
      </trkpt>
      <trkpt lat="48.76743" lon="2.05732">
        <ele>160</ele>
        <time>2011-11-20T14:50:01Z</time>
      </trkpt>
      <trkpt lat="48.76733" lon="2.05743">
        <ele>160</ele>
        <time>2011-11-20T14:50:06Z</time>
      </trkpt>
      <trkpt lat="48.76723" lon="2.05755">
        <ele>158</ele>
        <time>2011-11-20T14:50:11Z</time>
      </trkpt>
      <trkpt lat="48.76714" lon="2.05765">
        <ele>158</ele>
        <time>2011-11-20T14:50:16Z</time>
      </trkpt>
      <trkpt lat="48.76711" lon="2.05771">
        <ele>158</ele>
        <time>2011-11-20T14:50:18Z</time>
      </trkpt>
      <trkpt lat="48.76707" lon="2.05776">
        <ele>158</ele>
        <time>2011-11-20T14:50:20Z</time>
      </trkpt>
      <trkpt lat="48.76698" lon="2.05786">
        <ele>157</ele>
        <time>2011-11-20T14:50:25Z</time>
      </trkpt>
      <trkpt lat="48.76688" lon="2.05796">
        <ele>157</ele>
        <time>2011-11-20T14:50:30Z</time>
      </trkpt>
      <trkpt lat="48.76685" lon="2.05801">
        <ele>157</ele>
        <time>2011-11-20T14:50:32Z</time>
      </trkpt>
      <trkpt lat="48.76675" lon="2.05814">
        <ele>157</ele>
        <time>2011-11-20T14:50:37Z</time>
      </trkpt>
      <trkpt lat="48.76666" lon="2.05827">
        <ele>156</ele>
        <time>2011-11-20T14:50:42Z</time>
      </trkpt>
      <trkpt lat="48.76657" lon="2.05838">
        <ele>156</ele>
        <time>2011-11-20T14:50:47Z</time>
      </trkpt>
      <trkpt lat="48.76647" lon="2.05848">
        <ele>157</ele>
        <time>2011-11-20T14:50:52Z</time>
      </trkpt>
      <trkpt lat="48.76638" lon="2.05858">
        <ele>157</ele>
        <time>2011-11-20T14:50:57Z</time>
      </trkpt>
      <trkpt lat="48.76629" lon="2.05868">
        <ele>157</ele>
        <time>2011-11-20T14:51:02Z</time>
      </trkpt>
      <trkpt lat="48.7662" lon="2.05879">
        <ele>157</ele>
        <time>2011-11-20T14:51:07Z</time>
      </trkpt>
      <trkpt lat="48.76611" lon="2.05891">
        <ele>157</ele>
        <time>2011-11-20T14:51:12Z</time>
      </trkpt>
      <trkpt lat="48.76602" lon="2.05903">
        <ele>157</ele>
        <time>2011-11-20T14:51:17Z</time>
      </trkpt>
      <trkpt lat="48.76593" lon="2.05915">
        <ele>157</ele>
        <time>2011-11-20T14:51:22Z</time>
      </trkpt>
      <trkpt lat="48.76584" lon="2.05925">
        <ele>158</ele>
        <time>2011-11-20T14:51:27Z</time>
      </trkpt>
      <trkpt lat="48.76574" lon="2.05936">
        <ele>158</ele>
        <time>2011-11-20T14:51:32Z</time>
      </trkpt>
      <trkpt lat="48.76564" lon="2.05947">
        <ele>158</ele>
        <time>2011-11-20T14:51:37Z</time>
      </trkpt>
      <trkpt lat="48.76555" lon="2.05957">
        <ele>158</ele>
        <time>2011-11-20T14:51:42Z</time>
      </trkpt>
      <trkpt lat="48.76546" lon="2.05969">
        <ele>158</ele>
        <time>2011-11-20T14:51:47Z</time>
      </trkpt>
      <trkpt lat="48.76537" lon="2.0598">
        <ele>158</ele>
        <time>2011-11-20T14:51:52Z</time>
      </trkpt>
      <trkpt lat="48.76527" lon="2.0599">
        <ele>158</ele>
        <time>2011-11-20T14:51:57Z</time>
      </trkpt>
      <trkpt lat="48.76514" lon="2.05993">
        <ele>158</ele>
        <time>2011-11-20T14:52:02Z</time>
      </trkpt>
      <trkpt lat="48.7651" lon="2.05995">
        <ele>158</ele>
        <time>2011-11-20T14:52:04Z</time>
      </trkpt>
      <trkpt lat="48.76505" lon="2.06">
        <ele>158</ele>
        <time>2011-11-20T14:52:06Z</time>
      </trkpt>
      <trkpt lat="48.76502" lon="2.06005">
        <ele>158</ele>
        <time>2011-11-20T14:52:08Z</time>
      </trkpt>
      <trkpt lat="48.76497" lon="2.06009">
        <ele>158</ele>
        <time>2011-11-20T14:52:10Z</time>
      </trkpt>
      <trkpt lat="48.76492" lon="2.06011">
        <ele>159</ele>
        <time>2011-11-20T14:52:12Z</time>
      </trkpt>
      <trkpt lat="48.76487" lon="2.06013">
        <ele>159</ele>
        <time>2011-11-20T14:52:14Z</time>
      </trkpt>
      <trkpt lat="48.76482" lon="2.06015">
        <ele>159</ele>
        <time>2011-11-20T14:52:16Z</time>
      </trkpt>
      <trkpt lat="48.76473" lon="2.06029">
        <ele>159</ele>
        <time>2011-11-20T14:52:21Z</time>
      </trkpt>
      <trkpt lat="48.76462" lon="2.06034">
        <ele>159</ele>
        <time>2011-11-20T14:52:26Z</time>
      </trkpt>
      <trkpt lat="48.7645" lon="2.06035">
        <ele>159</ele>
        <time>2011-11-20T14:52:31Z</time>
      </trkpt>
      <trkpt lat="48.76438" lon="2.06037">
        <ele>159</ele>
        <time>2011-11-20T14:52:36Z</time>
      </trkpt>
      <trkpt lat="48.76426" lon="2.0604">
        <ele>159</ele>
        <time>2011-11-20T14:52:41Z</time>
      </trkpt>
      <trkpt lat="48.76414" lon="2.06042">
        <ele>160</ele>
        <time>2011-11-20T14:52:46Z</time>
      </trkpt>
      <trkpt lat="48.76403" lon="2.06037">
        <ele>160</ele>
        <time>2011-11-20T14:52:51Z</time>
      </trkpt>
      <trkpt lat="48.76393" lon="2.06026">
        <ele>160</ele>
        <time>2011-11-20T14:52:56Z</time>
      </trkpt>
      <trkpt lat="48.76383" lon="2.06015">
        <ele>160</ele>
        <time>2011-11-20T14:53:01Z</time>
      </trkpt>
      <trkpt lat="48.76373" lon="2.06007">
        <ele>160</ele>
        <time>2011-11-20T14:53:06Z</time>
      </trkpt>
      <trkpt lat="48.76363" lon="2.05997">
        <ele>159</ele>
        <time>2011-11-20T14:53:11Z</time>
      </trkpt>
      <trkpt lat="48.76358" lon="2.05994">
        <ele>159</ele>
        <time>2011-11-20T14:53:13Z</time>
      </trkpt>
      <trkpt lat="48.76346" lon="2.05995">
        <ele>160</ele>
        <time>2011-11-20T14:53:18Z</time>
      </trkpt>
      <trkpt lat="48.76341" lon="2.05996">
        <ele>160</ele>
        <time>2011-11-20T14:53:20Z</time>
      </trkpt>
      <trkpt lat="48.76329" lon="2.06">
        <ele>160</ele>
        <time>2011-11-20T14:53:25Z</time>
      </trkpt>
      <trkpt lat="48.76324" lon="2.06001">
        <ele>160</ele>
        <time>2011-11-20T14:53:27Z</time>
      </trkpt>
      <trkpt lat="48.76312" lon="2.06005">
        <ele>160</ele>
        <time>2011-11-20T14:53:32Z</time>
      </trkpt>
      <trkpt lat="48.763" lon="2.06009">
        <ele>160</ele>
        <time>2011-11-20T14:53:37Z</time>
      </trkpt>
      <trkpt lat="48.76288" lon="2.06013">
        <ele>159</ele>
        <time>2011-11-20T14:53:42Z</time>
      </trkpt>
      <trkpt lat="48.76276" lon="2.06017">
        <ele>159</ele>
        <time>2011-11-20T14:53:47Z</time>
      </trkpt>
      <trkpt lat="48.76265" lon="2.0602">
        <ele>159</ele>
        <time>2011-11-20T14:53:52Z</time>
      </trkpt>
      <trkpt lat="48.76254" lon="2.06025">
        <ele>159</ele>
        <time>2011-11-20T14:53:57Z</time>
      </trkpt>
      <trkpt lat="48.76246" lon="2.06039">
        <ele>159</ele>
        <time>2011-11-20T14:54:02Z</time>
      </trkpt>
      <trkpt lat="48.76239" lon="2.06052">
        <ele>159</ele>
        <time>2011-11-20T14:54:07Z</time>
      </trkpt>
      <trkpt lat="48.76231" lon="2.06065">
        <ele>159</ele>
        <time>2011-11-20T14:54:12Z</time>
      </trkpt>
      <trkpt lat="48.76223" lon="2.06076">
        <ele>159</ele>
        <time>2011-11-20T14:54:17Z</time>
      </trkpt>
      <trkpt lat="48.76214" lon="2.06087">
        <ele>159</ele>
        <time>2011-11-20T14:54:22Z</time>
      </trkpt>
      <trkpt lat="48.76204" lon="2.06097">
        <ele>159</ele>
        <time>2011-11-20T14:54:27Z</time>
      </trkpt>
      <trkpt lat="48.762" lon="2.06102">
        <ele>159</ele>
        <time>2011-11-20T14:54:29Z</time>
      </trkpt>
      <trkpt lat="48.76196" lon="2.06107">
        <ele>159</ele>
        <time>2011-11-20T14:54:31Z</time>
      </trkpt>
      <trkpt lat="48.76193" lon="2.06112">
        <ele>159</ele>
        <time>2011-11-20T14:54:33Z</time>
      </trkpt>
      <trkpt lat="48.76189" lon="2.06116">
        <ele>159</ele>
        <time>2011-11-20T14:54:35Z</time>
      </trkpt>
      <trkpt lat="48.76179" lon="2.06128">
        <ele>159</ele>
        <time>2011-11-20T14:54:40Z</time>
      </trkpt>
      <trkpt lat="48.76171" lon="2.06139">
        <ele>159</ele>
        <time>2011-11-20T14:54:45Z</time>
      </trkpt>
      <trkpt lat="48.76149" lon="2.06164">
        <ele>159</ele>
        <time>2011-11-20T14:54:56Z</time>
      </trkpt>
      <trkpt lat="48.76142" lon="2.06178">
        <ele>159</ele>
        <time>2011-11-20T14:55:01Z</time>
      </trkpt>
      <trkpt lat="48.76141" lon="2.06195">
        <ele>159</ele>
        <time>2011-11-20T14:55:06Z</time>
      </trkpt>
      <trkpt lat="48.7614" lon="2.06211">
        <ele>159</ele>
        <time>2011-11-20T14:55:11Z</time>
      </trkpt>
      <trkpt lat="48.76138" lon="2.06227">
        <ele>159</ele>
        <time>2011-11-20T14:55:16Z</time>
      </trkpt>
      <trkpt lat="48.7614" lon="2.06244">
        <ele>159</ele>
        <time>2011-11-20T14:55:21Z</time>
      </trkpt>
      <trkpt lat="48.76139" lon="2.06261">
        <ele>159</ele>
        <time>2011-11-20T14:55:26Z</time>
      </trkpt>
      <trkpt lat="48.76137" lon="2.06278">
        <ele>159</ele>
        <time>2011-11-20T14:55:31Z</time>
      </trkpt>
      <trkpt lat="48.76132" lon="2.06292">
        <ele>159</ele>
        <time>2011-11-20T14:55:36Z</time>
      </trkpt>
      <trkpt lat="48.76122" lon="2.06297">
        <ele>159</ele>
        <time>2011-11-20T14:55:41Z</time>
      </trkpt>
      <trkpt lat="48.76111" lon="2.063">
        <ele>159</ele>
        <time>2011-11-20T14:55:46Z</time>
      </trkpt>
      <trkpt lat="48.76099" lon="2.06305">
        <ele>159</ele>
        <time>2011-11-20T14:55:51Z</time>
      </trkpt>
      <trkpt lat="48.7609" lon="2.06311">
        <ele>159</ele>
        <time>2011-11-20T14:55:56Z</time>
      </trkpt>
      <trkpt lat="48.76079" lon="2.06316">
        <ele>159</ele>
        <time>2011-11-20T14:56:01Z</time>
      </trkpt>
      <trkpt lat="48.76068" lon="2.0632">
        <ele>159</ele>
        <time>2011-11-20T14:56:06Z</time>
      </trkpt>
      <trkpt lat="48.76057" lon="2.06326">
        <ele>159</ele>
        <time>2011-11-20T14:56:11Z</time>
      </trkpt>
      <trkpt lat="48.76046" lon="2.06334">
        <ele>159</ele>
        <time>2011-11-20T14:56:16Z</time>
      </trkpt>
      <trkpt lat="48.76035" lon="2.06339">
        <ele>159</ele>
        <time>2011-11-20T14:56:21Z</time>
      </trkpt>
      <trkpt lat="48.76024" lon="2.06344">
        <ele>159</ele>
        <time>2011-11-20T14:56:26Z</time>
      </trkpt>
      <trkpt lat="48.76013" lon="2.0635">
        <ele>159</ele>
        <time>2011-11-20T14:56:31Z</time>
      </trkpt>
      <trkpt lat="48.76002" lon="2.06356">
        <ele>159</ele>
        <time>2011-11-20T14:56:36Z</time>
      </trkpt>
      <trkpt lat="48.75991" lon="2.06363">
        <ele>160</ele>
        <time>2011-11-20T14:56:41Z</time>
      </trkpt>
      <trkpt lat="48.75981" lon="2.06368">
        <ele>160</ele>
        <time>2011-11-20T14:56:46Z</time>
      </trkpt>
      <trkpt lat="48.7597" lon="2.06372">
        <ele>160</ele>
        <time>2011-11-20T14:56:51Z</time>
      </trkpt>
      <trkpt lat="48.75959" lon="2.06376">
        <ele>160</ele>
        <time>2011-11-20T14:56:56Z</time>
      </trkpt>
      <trkpt lat="48.75948" lon="2.06371">
        <ele>160</ele>
        <time>2011-11-20T14:57:01Z</time>
      </trkpt>
      <trkpt lat="48.75937" lon="2.06367">
        <ele>161</ele>
        <time>2011-11-20T14:57:06Z</time>
      </trkpt>
      <trkpt lat="48.75926" lon="2.06362">
        <ele>161</ele>
        <time>2011-11-20T14:57:11Z</time>
      </trkpt>
      <trkpt lat="48.75914" lon="2.06356">
        <ele>161</ele>
        <time>2011-11-20T14:57:16Z</time>
      </trkpt>
      <trkpt lat="48.75903" lon="2.06351">
        <ele>161</ele>
        <time>2011-11-20T14:57:21Z</time>
      </trkpt>
      <trkpt lat="48.75892" lon="2.06348">
        <ele>161</ele>
        <time>2011-11-20T14:57:26Z</time>
      </trkpt>
      <trkpt lat="48.75882" lon="2.06343">
        <ele>161</ele>
        <time>2011-11-20T14:57:31Z</time>
      </trkpt>
      <trkpt lat="48.75871" lon="2.06339">
        <ele>161</ele>
        <time>2011-11-20T14:57:36Z</time>
      </trkpt>
      <trkpt lat="48.75861" lon="2.06335">
        <ele>161</ele>
        <time>2011-11-20T14:57:41Z</time>
      </trkpt>
      <trkpt lat="48.7585" lon="2.06331">
        <ele>160</ele>
        <time>2011-11-20T14:57:46Z</time>
      </trkpt>
      <trkpt lat="48.75839" lon="2.06326">
        <ele>160</ele>
        <time>2011-11-20T14:57:51Z</time>
      </trkpt>
      <trkpt lat="48.75827" lon="2.06322">
        <ele>160</ele>
        <time>2011-11-20T14:57:56Z</time>
      </trkpt>
      <trkpt lat="48.75816" lon="2.06317">
        <ele>161</ele>
        <time>2011-11-20T14:58:01Z</time>
      </trkpt>
      <trkpt lat="48.75805" lon="2.06313">
        <ele>161</ele>
        <time>2011-11-20T14:58:06Z</time>
      </trkpt>
      <trkpt lat="48.75795" lon="2.06309">
        <ele>161</ele>
        <time>2011-11-20T14:58:11Z</time>
      </trkpt>
      <trkpt lat="48.75784" lon="2.06307">
        <ele>161</ele>
        <time>2011-11-20T14:58:16Z</time>
      </trkpt>
      <trkpt lat="48.75776" lon="2.063">
        <ele>161</ele>
        <time>2011-11-20T14:58:21Z</time>
      </trkpt>
      <trkpt lat="48.75778" lon="2.06284">
        <ele>161</ele>
        <time>2011-11-20T14:58:26Z</time>
      </trkpt>
      <trkpt lat="48.75781" lon="2.06268">
        <ele>161</ele>
        <time>2011-11-20T14:58:31Z</time>
      </trkpt>
      <trkpt lat="48.75784" lon="2.06251">
        <ele>161</ele>
        <time>2011-11-20T14:58:36Z</time>
      </trkpt>
      <trkpt lat="48.75785" lon="2.06234">
        <ele>161</ele>
        <time>2011-11-20T14:58:41Z</time>
      </trkpt>
      <trkpt lat="48.75789" lon="2.06217">
        <ele>161</ele>
        <time>2011-11-20T14:58:46Z</time>
      </trkpt>
      <trkpt lat="48.75792" lon="2.062">
        <ele>161</ele>
        <time>2011-11-20T14:58:51Z</time>
      </trkpt>
      <trkpt lat="48.75795" lon="2.06184">
        <ele>161</ele>
        <time>2011-11-20T14:58:56Z</time>
      </trkpt>
      <trkpt lat="48.75798" lon="2.06167">
        <ele>161</ele>
        <time>2011-11-20T14:59:01Z</time>
      </trkpt>
      <trkpt lat="48.75802" lon="2.06151">
        <ele>161</ele>
        <time>2011-11-20T14:59:06Z</time>
      </trkpt>
      <trkpt lat="48.75806" lon="2.06135">
        <ele>161</ele>
        <time>2011-11-20T14:59:11Z</time>
      </trkpt>
      <trkpt lat="48.7581" lon="2.06119">
        <ele>161</ele>
        <time>2011-11-20T14:59:16Z</time>
      </trkpt>
      <trkpt lat="48.75813" lon="2.06104">
        <ele>162</ele>
        <time>2011-11-20T14:59:21Z</time>
      </trkpt>
      <trkpt lat="48.75817" lon="2.06088">
        <ele>162</ele>
        <time>2011-11-20T14:59:26Z</time>
      </trkpt>
      <trkpt lat="48.75822" lon="2.06073">
        <ele>162</ele>
        <time>2011-11-20T14:59:31Z</time>
      </trkpt>
      <trkpt lat="48.75826" lon="2.06057">
        <ele>162</ele>
        <time>2011-11-20T14:59:36Z</time>
      </trkpt>
      <trkpt lat="48.75827" lon="2.0604">
        <ele>163</ele>
        <time>2011-11-20T14:59:41Z</time>
      </trkpt>
      <trkpt lat="48.75829" lon="2.06026">
        <ele>163</ele>
        <time>2011-11-20T14:59:46Z</time>
      </trkpt>
      <trkpt lat="48.75831" lon="2.06008">
        <ele>164</ele>
        <time>2011-11-20T14:59:51Z</time>
      </trkpt>
      <trkpt lat="48.75832" lon="2.05991">
        <ele>164</ele>
        <time>2011-11-20T14:59:56Z</time>
      </trkpt>
      <trkpt lat="48.75835" lon="2.05976">
        <ele>163</ele>
        <time>2011-11-20T15:00:01Z</time>
      </trkpt>
      <trkpt lat="48.7584" lon="2.05961">
        <ele>162</ele>
        <time>2011-11-20T15:00:06Z</time>
      </trkpt>
      <trkpt lat="48.7584" lon="2.05942">
        <ele>162</ele>
        <time>2011-11-20T15:00:11Z</time>
      </trkpt>
      <trkpt lat="48.75842" lon="2.05927">
        <ele>162</ele>
        <time>2011-11-20T15:00:16Z</time>
      </trkpt>
      <trkpt lat="48.75845" lon="2.05911">
        <ele>161</ele>
        <time>2011-11-20T15:00:21Z</time>
      </trkpt>
      <trkpt lat="48.75847" lon="2.05895">
        <ele>161</ele>
        <time>2011-11-20T15:00:26Z</time>
      </trkpt>
      <trkpt lat="48.75848" lon="2.0588">
        <ele>161</ele>
        <time>2011-11-20T15:00:31Z</time>
      </trkpt>
      <trkpt lat="48.75848" lon="2.0586">
        <ele>161</ele>
        <time>2011-11-20T15:00:36Z</time>
      </trkpt>
      <trkpt lat="48.7585" lon="2.05843">
        <ele>160</ele>
        <time>2011-11-20T15:00:41Z</time>
      </trkpt>
      <trkpt lat="48.75854" lon="2.05825">
        <ele>160</ele>
        <time>2011-11-20T15:00:46Z</time>
      </trkpt>
      <trkpt lat="48.75855" lon="2.05807">
        <ele>160</ele>
        <time>2011-11-20T15:00:51Z</time>
      </trkpt>
      <trkpt lat="48.75858" lon="2.05788">
        <ele>161</ele>
        <time>2011-11-20T15:00:56Z</time>
      </trkpt>
      <trkpt lat="48.75862" lon="2.05773">
        <ele>161</ele>
        <time>2011-11-20T15:01:01Z</time>
      </trkpt>
      <trkpt lat="48.75863" lon="2.05753">
        <ele>161</ele>
        <time>2011-11-20T15:01:06Z</time>
      </trkpt>
      <trkpt lat="48.75867" lon="2.05738">
        <ele>161</ele>
        <time>2011-11-20T15:01:11Z</time>
      </trkpt>
      <trkpt lat="48.75874" lon="2.05725">
        <ele>161</ele>
        <time>2011-11-20T15:01:16Z</time>
      </trkpt>
      <trkpt lat="48.75884" lon="2.05718">
        <ele>161</ele>
        <time>2011-11-20T15:01:21Z</time>
      </trkpt>
      <trkpt lat="48.75895" lon="2.05711">
        <ele>161</ele>
        <time>2011-11-20T15:01:26Z</time>
      </trkpt>
      <trkpt lat="48.75906" lon="2.05706">
        <ele>161</ele>
        <time>2011-11-20T15:01:31Z</time>
      </trkpt>
      <trkpt lat="48.75917" lon="2.05707">
        <ele>160</ele>
        <time>2011-11-20T15:01:36Z</time>
      </trkpt>
      <trkpt lat="48.75929" lon="2.05699">
        <ele>160</ele>
        <time>2011-11-20T15:01:41Z</time>
      </trkpt>
      <trkpt lat="48.75939" lon="2.05691">
        <ele>160</ele>
        <time>2011-11-20T15:01:46Z</time>
      </trkpt>
      <trkpt lat="48.75951" lon="2.05693">
        <ele>160</ele>
        <time>2011-11-20T15:01:51Z</time>
      </trkpt>
      <trkpt lat="48.75962" lon="2.05692">
        <ele>160</ele>
        <time>2011-11-20T15:01:56Z</time>
      </trkpt>
      <trkpt lat="48.75973" lon="2.05689">
        <ele>160</ele>
        <time>2011-11-20T15:02:01Z</time>
      </trkpt>
      <trkpt lat="48.75984" lon="2.05688">
        <ele>160</ele>
        <time>2011-11-20T15:02:06Z</time>
      </trkpt>
      <trkpt lat="48.75995" lon="2.05683">
        <ele>160</ele>
        <time>2011-11-20T15:02:11Z</time>
      </trkpt>
      <trkpt lat="48.76005" lon="2.0569">
        <ele>160</ele>
        <time>2011-11-20T15:02:16Z</time>
      </trkpt>
      <trkpt lat="48.76013" lon="2.05703">
        <ele>160</ele>
        <time>2011-11-20T15:02:21Z</time>
      </trkpt>
      <trkpt lat="48.7602" lon="2.05715">
        <ele>160</ele>
        <time>2011-11-20T15:02:26Z</time>
      </trkpt>
      <trkpt lat="48.76026" lon="2.05727">
        <ele>160</ele>
        <time>2011-11-20T15:02:31Z</time>
      </trkpt>
      <trkpt lat="48.76033" lon="2.05739">
        <ele>160</ele>
        <time>2011-11-20T15:02:36Z</time>
      </trkpt>
      <trkpt lat="48.7604" lon="2.05751">
        <ele>160</ele>
        <time>2011-11-20T15:02:41Z</time>
      </trkpt>
      <trkpt lat="48.76046" lon="2.05765">
        <ele>160</ele>
        <time>2011-11-20T15:02:46Z</time>
      </trkpt>
      <trkpt lat="48.76053" lon="2.05779">
        <ele>160</ele>
        <time>2011-11-20T15:02:51Z</time>
      </trkpt>
      <trkpt lat="48.76061" lon="2.05792">
        <ele>160</ele>
        <time>2011-11-20T15:02:56Z</time>
      </trkpt>
      <trkpt lat="48.76069" lon="2.05804">
        <ele>160</ele>
        <time>2011-11-20T15:03:01Z</time>
      </trkpt>
      <trkpt lat="48.76078" lon="2.05815">
        <ele>160</ele>
        <time>2011-11-20T15:03:06Z</time>
      </trkpt>
      <trkpt lat="48.76086" lon="2.05828">
        <ele>160</ele>
        <time>2011-11-20T15:03:11Z</time>
      </trkpt>
      <trkpt lat="48.76095" lon="2.0584">
        <ele>160</ele>
        <time>2011-11-20T15:03:16Z</time>
      </trkpt>
      <trkpt lat="48.76104" lon="2.0585">
        <ele>160</ele>
        <time>2011-11-20T15:03:21Z</time>
      </trkpt>
      <trkpt lat="48.76113" lon="2.05862">
        <ele>160</ele>
        <time>2011-11-20T15:03:26Z</time>
      </trkpt>
      <trkpt lat="48.76121" lon="2.05873">
        <ele>160</ele>
        <time>2011-11-20T15:03:31Z</time>
      </trkpt>
      <trkpt lat="48.76127" lon="2.05887">
        <ele>159</ele>
        <time>2011-11-20T15:03:36Z</time>
      </trkpt>
      <trkpt lat="48.76133" lon="2.05902">
        <ele>159</ele>
        <time>2011-11-20T15:03:41Z</time>
      </trkpt>
      <trkpt lat="48.76141" lon="2.05915">
        <ele>159</ele>
        <time>2011-11-20T15:03:46Z</time>
      </trkpt>
      <trkpt lat="48.7615" lon="2.05924">
        <ele>159</ele>
        <time>2011-11-20T15:03:51Z</time>
      </trkpt>
      <trkpt lat="48.7616" lon="2.05935">
        <ele>159</ele>
        <time>2011-11-20T15:03:56Z</time>
      </trkpt>
      <trkpt lat="48.76169" lon="2.05946">
        <ele>159</ele>
        <time>2011-11-20T15:04:01Z</time>
      </trkpt>
      <trkpt lat="48.76177" lon="2.05959">
        <ele>159</ele>
        <time>2011-11-20T15:04:06Z</time>
      </trkpt>
      <trkpt lat="48.76185" lon="2.05972">
        <ele>159</ele>
        <time>2011-11-20T15:04:11Z</time>
      </trkpt>
      <trkpt lat="48.76192" lon="2.05985">
        <ele>159</ele>
        <time>2011-11-20T15:04:16Z</time>
      </trkpt>
      <trkpt lat="48.762" lon="2.05996">
        <ele>159</ele>
        <time>2011-11-20T15:04:21Z</time>
      </trkpt>
      <trkpt lat="48.76209" lon="2.06009">
        <ele>159</ele>
        <time>2011-11-20T15:04:26Z</time>
      </trkpt>
      <trkpt lat="48.76218" lon="2.06018">
        <ele>159</ele>
        <time>2011-11-20T15:04:31Z</time>
      </trkpt>
      <trkpt lat="48.76226" lon="2.06028">
        <ele>159</ele>
        <time>2011-11-20T15:04:36Z</time>
      </trkpt>
      <trkpt lat="48.76236" lon="2.06032">
        <ele>159</ele>
        <time>2011-11-20T15:04:41Z</time>
      </trkpt>
      <trkpt lat="48.76247" lon="2.06028">
        <ele>159</ele>
        <time>2011-11-20T15:04:46Z</time>
      </trkpt>
      <trkpt lat="48.76258" lon="2.06023">
        <ele>159</ele>
        <time>2011-11-20T15:04:51Z</time>
      </trkpt>
      <trkpt lat="48.76268" lon="2.06019">
        <ele>159</ele>
        <time>2011-11-20T15:04:56Z</time>
      </trkpt>
      <trkpt lat="48.76278" lon="2.06015">
        <ele>159</ele>
        <time>2011-11-20T15:05:01Z</time>
      </trkpt>
      <trkpt lat="48.76289" lon="2.06012">
        <ele>159</ele>
        <time>2011-11-20T15:05:06Z</time>
      </trkpt>
      <trkpt lat="48.76299" lon="2.06009">
        <ele>160</ele>
        <time>2011-11-20T15:05:11Z</time>
      </trkpt>
      <trkpt lat="48.7631" lon="2.06006">
        <ele>160</ele>
        <time>2011-11-20T15:05:16Z</time>
      </trkpt>
      <trkpt lat="48.7632" lon="2.06003">
        <ele>160</ele>
        <time>2011-11-20T15:05:21Z</time>
      </trkpt>
      <trkpt lat="48.76331" lon="2.06001">
        <ele>160</ele>
        <time>2011-11-20T15:05:26Z</time>
      </trkpt>
      <trkpt lat="48.76342" lon="2.05998">
        <ele>160</ele>
        <time>2011-11-20T15:05:31Z</time>
      </trkpt>
      <trkpt lat="48.76353" lon="2.05997">
        <ele>160</ele>
        <time>2011-11-20T15:05:36Z</time>
      </trkpt>
      <trkpt lat="48.76364" lon="2.05995">
        <ele>159</ele>
        <time>2011-11-20T15:05:41Z</time>
      </trkpt>
      <trkpt lat="48.76373" lon="2.06001">
        <ele>160</ele>
        <time>2011-11-20T15:05:46Z</time>
      </trkpt>
      <trkpt lat="48.76382" lon="2.06009">
        <ele>160</ele>
        <time>2011-11-20T15:05:51Z</time>
      </trkpt>
      <trkpt lat="48.76392" lon="2.0602">
        <ele>160</ele>
        <time>2011-11-20T15:05:56Z</time>
      </trkpt>
      <trkpt lat="48.76401" lon="2.06029">
        <ele>160</ele>
        <time>2011-11-20T15:06:01Z</time>
      </trkpt>
      <trkpt lat="48.76411" lon="2.06033">
        <ele>160</ele>
        <time>2011-11-20T15:06:06Z</time>
      </trkpt>
      <trkpt lat="48.76421" lon="2.06041">
        <ele>159</ele>
        <time>2011-11-20T15:06:11Z</time>
      </trkpt>
      <trkpt lat="48.76433" lon="2.06039">
        <ele>159</ele>
        <time>2011-11-20T15:06:16Z</time>
      </trkpt>
      <trkpt lat="48.76443" lon="2.06036">
        <ele>159</ele>
        <time>2011-11-20T15:06:21Z</time>
      </trkpt>
      <trkpt lat="48.76453" lon="2.06034">
        <ele>159</ele>
        <time>2011-11-20T15:06:26Z</time>
      </trkpt>
      <trkpt lat="48.76466" lon="2.06032">
        <ele>159</ele>
        <time>2011-11-20T15:06:31Z</time>
      </trkpt>
      <trkpt lat="48.76477" lon="2.06035">
        <ele>159</ele>
        <time>2011-11-20T15:06:36Z</time>
      </trkpt>
      <trkpt lat="48.76488" lon="2.06044">
        <ele>159</ele>
        <time>2011-11-20T15:06:41Z</time>
      </trkpt>
      <trkpt lat="48.76499" lon="2.06039">
        <ele>159</ele>
        <time>2011-11-20T15:06:46Z</time>
      </trkpt>
      <trkpt lat="48.7651" lon="2.0603">
        <ele>159</ele>
        <time>2011-11-20T15:06:51Z</time>
      </trkpt>
      <trkpt lat="48.7652" lon="2.06021">
        <ele>159</ele>
        <time>2011-11-20T15:06:56Z</time>
      </trkpt>
      <trkpt lat="48.76531" lon="2.06016">
        <ele>159</ele>
        <time>2011-11-20T15:07:01Z</time>
      </trkpt>
      <trkpt lat="48.76542" lon="2.06009">
        <ele>159</ele>
        <time>2011-11-20T15:07:06Z</time>
      </trkpt>
      <trkpt lat="48.76552" lon="2.06003">
        <ele>159</ele>
        <time>2011-11-20T15:07:11Z</time>
      </trkpt>
      <trkpt lat="48.76564" lon="2.05998">
        <ele>159</ele>
        <time>2011-11-20T15:07:16Z</time>
      </trkpt>
      <trkpt lat="48.76574" lon="2.05991">
        <ele>159</ele>
        <time>2011-11-20T15:07:21Z</time>
      </trkpt>
      <trkpt lat="48.76584" lon="2.05984">
        <ele>159</ele>
        <time>2011-11-20T15:07:26Z</time>
      </trkpt>
      <trkpt lat="48.76595" lon="2.05981">
        <ele>159</ele>
        <time>2011-11-20T15:07:31Z</time>
      </trkpt>
      <trkpt lat="48.76606" lon="2.05976">
        <ele>159</ele>
        <time>2011-11-20T15:07:36Z</time>
      </trkpt>
      <trkpt lat="48.76617" lon="2.05972">
        <ele>159</ele>
        <time>2011-11-20T15:07:41Z</time>
      </trkpt>
      <trkpt lat="48.76628" lon="2.05965">
        <ele>159</ele>
        <time>2011-11-20T15:07:46Z</time>
      </trkpt>
      <trkpt lat="48.76638" lon="2.0596">
        <ele>159</ele>
        <time>2011-11-20T15:07:51Z</time>
      </trkpt>
      <trkpt lat="48.76648" lon="2.05952">
        <ele>159</ele>
        <time>2011-11-20T15:07:56Z</time>
      </trkpt>
      <trkpt lat="48.76659" lon="2.05946">
        <ele>159</ele>
        <time>2011-11-20T15:08:01Z</time>
      </trkpt>
      <trkpt lat="48.7667" lon="2.0594">
        <ele>159</ele>
        <time>2011-11-20T15:08:06Z</time>
      </trkpt>
      <trkpt lat="48.7668" lon="2.05932">
        <ele>159</ele>
        <time>2011-11-20T15:08:11Z</time>
      </trkpt>
      <trkpt lat="48.76692" lon="2.0593">
        <ele>159</ele>
        <time>2011-11-20T15:08:16Z</time>
      </trkpt>
      <trkpt lat="48.76704" lon="2.05926">
        <ele>159</ele>
        <time>2011-11-20T15:08:21Z</time>
      </trkpt>
      <trkpt lat="48.76715" lon="2.05921">
        <ele>159</ele>
        <time>2011-11-20T15:08:26Z</time>
      </trkpt>
      <trkpt lat="48.76726" lon="2.05915">
        <ele>158</ele>
        <time>2011-11-20T15:08:31Z</time>
      </trkpt>
      <trkpt lat="48.76737" lon="2.05908">
        <ele>158</ele>
        <time>2011-11-20T15:08:36Z</time>
      </trkpt>
      <trkpt lat="48.76747" lon="2.05897">
        <ele>158</ele>
        <time>2011-11-20T15:08:41Z</time>
      </trkpt>
      <trkpt lat="48.76756" lon="2.05885">
        <ele>157</ele>
        <time>2011-11-20T15:08:46Z</time>
      </trkpt>
      <trkpt lat="48.76765" lon="2.05876">
        <ele>156</ele>
        <time>2011-11-20T15:08:51Z</time>
      </trkpt>
      <trkpt lat="48.76776" lon="2.05878">
        <ele>156</ele>
        <time>2011-11-20T15:08:56Z</time>
      </trkpt>
      <trkpt lat="48.76787" lon="2.05879">
        <ele>156</ele>
        <time>2011-11-20T15:09:01Z</time>
      </trkpt>
      <trkpt lat="48.76798" lon="2.05879">
        <ele>156</ele>
        <time>2011-11-20T15:09:06Z</time>
      </trkpt>
      <trkpt lat="48.7681" lon="2.0588">
        <ele>156</ele>
        <time>2011-11-20T15:09:11Z</time>
      </trkpt>
      <trkpt lat="48.76822" lon="2.05882">
        <ele>156</ele>
        <time>2011-11-20T15:09:16Z</time>
      </trkpt>
      <trkpt lat="48.76833" lon="2.05886">
        <ele>155</ele>
        <time>2011-11-20T15:09:21Z</time>
      </trkpt>
      <trkpt lat="48.76842" lon="2.05897">
        <ele>154</ele>
        <time>2011-11-20T15:09:26Z</time>
      </trkpt>
      <trkpt lat="48.76849" lon="2.05912">
        <ele>154</ele>
        <time>2011-11-20T15:09:31Z</time>
      </trkpt>
      <trkpt lat="48.76857" lon="2.05925">
        <ele>155</ele>
        <time>2011-11-20T15:09:36Z</time>
      </trkpt>
      <trkpt lat="48.76863" lon="2.05939">
        <ele>155</ele>
        <time>2011-11-20T15:09:41Z</time>
      </trkpt>
      <trkpt lat="48.7687" lon="2.05953">
        <ele>155</ele>
        <time>2011-11-20T15:09:46Z</time>
      </trkpt>
      <trkpt lat="48.76876" lon="2.05966">
        <ele>155</ele>
        <time>2011-11-20T15:09:51Z</time>
      </trkpt>
      <trkpt lat="48.76882" lon="2.0598">
        <ele>155</ele>
        <time>2011-11-20T15:09:56Z</time>
      </trkpt>
      <trkpt lat="48.76888" lon="2.05993">
        <ele>155</ele>
        <time>2011-11-20T15:10:01Z</time>
      </trkpt>
      <trkpt lat="48.76893" lon="2.06006">
        <ele>156</ele>
        <time>2011-11-20T15:10:06Z</time>
      </trkpt>
      <trkpt lat="48.76898" lon="2.06021">
        <ele>156</ele>
        <time>2011-11-20T15:10:11Z</time>
      </trkpt>
      <trkpt lat="48.76904" lon="2.06036">
        <ele>156</ele>
        <time>2011-11-20T15:10:16Z</time>
      </trkpt>
      <trkpt lat="48.76908" lon="2.06051">
        <ele>157</ele>
        <time>2011-11-20T15:10:21Z</time>
      </trkpt>
      <trkpt lat="48.76913" lon="2.06066">
        <ele>156</ele>
        <time>2011-11-20T15:10:26Z</time>
      </trkpt>
      <trkpt lat="48.76923" lon="2.06071">
        <ele>156</ele>
        <time>2011-11-20T15:10:31Z</time>
      </trkpt>
      <trkpt lat="48.76933" lon="2.06062">
        <ele>155</ele>
        <time>2011-11-20T15:10:36Z</time>
      </trkpt>
      <trkpt lat="48.76942" lon="2.0605">
        <ele>155</ele>
        <time>2011-11-20T15:10:41Z</time>
      </trkpt>
      <trkpt lat="48.76947" lon="2.06037">
        <ele>155</ele>
        <time>2011-11-20T15:10:46Z</time>
      </trkpt>
      <trkpt lat="48.76952" lon="2.06022">
        <ele>155</ele>
        <time>2011-11-20T15:10:51Z</time>
      </trkpt>
      <trkpt lat="48.76956" lon="2.06005">
        <ele>155</ele>
        <time>2011-11-20T15:10:56Z</time>
      </trkpt>
      <trkpt lat="48.7696" lon="2.05989">
        <ele>153</ele>
        <time>2011-11-20T15:11:01Z</time>
      </trkpt>
      <trkpt lat="48.76964" lon="2.05972">
        <ele>153</ele>
        <time>2011-11-20T15:11:06Z</time>
      </trkpt>
      <trkpt lat="48.76968" lon="2.05956">
        <ele>153</ele>
        <time>2011-11-20T15:11:11Z</time>
      </trkpt>
      <trkpt lat="48.76973" lon="2.0594">
        <ele>153</ele>
        <time>2011-11-20T15:11:16Z</time>
      </trkpt>
      <trkpt lat="48.76977" lon="2.05924">
        <ele>153</ele>
        <time>2011-11-20T15:11:21Z</time>
      </trkpt>
      <trkpt lat="48.76981" lon="2.05908">
        <ele>153</ele>
        <time>2011-11-20T15:11:26Z</time>
      </trkpt>
      <trkpt lat="48.76986" lon="2.05892">
        <ele>153</ele>
        <time>2011-11-20T15:11:31Z</time>
      </trkpt>
      <trkpt lat="48.76989" lon="2.05876">
        <ele>153</ele>
        <time>2011-11-20T15:11:36Z</time>
      </trkpt>
      <trkpt lat="48.76992" lon="2.05861">
        <ele>154</ele>
        <time>2011-11-20T15:11:41Z</time>
      </trkpt>
      <trkpt lat="48.76997" lon="2.05845">
        <ele>155</ele>
        <time>2011-11-20T15:11:46Z</time>
      </trkpt>
      <trkpt lat="48.77002" lon="2.05829">
        <ele>156</ele>
        <time>2011-11-20T15:11:51Z</time>
      </trkpt>
      <trkpt lat="48.77006" lon="2.05814">
        <ele>155</ele>
        <time>2011-11-20T15:11:56Z</time>
      </trkpt>
      <trkpt lat="48.77011" lon="2.05799">
        <ele>155</ele>
        <time>2011-11-20T15:12:01Z</time>
      </trkpt>
      <trkpt lat="48.77015" lon="2.05784">
        <ele>155</ele>
        <time>2011-11-20T15:12:06Z</time>
      </trkpt>
      <trkpt lat="48.77019" lon="2.05768">
        <ele>155</ele>
        <time>2011-11-20T15:12:11Z</time>
      </trkpt>
      <trkpt lat="48.77023" lon="2.05752">
        <ele>156</ele>
        <time>2011-11-20T15:12:16Z</time>
      </trkpt>
      <trkpt lat="48.77028" lon="2.05737">
        <ele>156</ele>
        <time>2011-11-20T15:12:21Z</time>
      </trkpt>
      <trkpt lat="48.77033" lon="2.05723">
        <ele>156</ele>
        <time>2011-11-20T15:12:26Z</time>
      </trkpt>
      <trkpt lat="48.77037" lon="2.05707">
        <ele>156</ele>
        <time>2011-11-20T15:12:31Z</time>
      </trkpt>
      <trkpt lat="48.7704" lon="2.05689">
        <ele>156</ele>
        <time>2011-11-20T15:12:36Z</time>
      </trkpt>
      <trkpt lat="48.77039" lon="2.05672">
        <ele>156</ele>
        <time>2011-11-20T15:12:41Z</time>
      </trkpt>
      <trkpt lat="48.77035" lon="2.05655">
        <ele>157</ele>
        <time>2011-11-20T15:12:46Z</time>
      </trkpt>
      <trkpt lat="48.77031" lon="2.05639">
        <ele>157</ele>
        <time>2011-11-20T15:12:51Z</time>
      </trkpt>
      <trkpt lat="48.77025" lon="2.05624">
        <ele>157</ele>
        <time>2011-11-20T15:12:56Z</time>
      </trkpt>
      <trkpt lat="48.77018" lon="2.05611">
        <ele>157</ele>
        <time>2011-11-20T15:13:01Z</time>
      </trkpt>
      <trkpt lat="48.77008" lon="2.056">
        <ele>157</ele>
        <time>2011-11-20T15:13:06Z</time>
      </trkpt>
      <trkpt lat="48.77005" lon="2.05596">
        <ele>157</ele>
        <time>2011-11-20T15:13:08Z</time>
      </trkpt>
      <trkpt lat="48.76996" lon="2.05586">
        <ele>157</ele>
        <time>2011-11-20T15:13:13Z</time>
      </trkpt>
      <trkpt lat="48.76986" lon="2.05577">
        <ele>157</ele>
        <time>2011-11-20T15:13:18Z</time>
      </trkpt>
      <trkpt lat="48.76976" lon="2.05568">
        <ele>156</ele>
        <time>2011-11-20T15:13:23Z</time>
      </trkpt>
      <trkpt lat="48.76967" lon="2.0556">
        <ele>156</ele>
        <time>2011-11-20T15:13:28Z</time>
      </trkpt>
      <trkpt lat="48.76957" lon="2.05551">
        <ele>156</ele>
        <time>2011-11-20T15:13:33Z</time>
      </trkpt>
      <trkpt lat="48.76947" lon="2.0554">
        <ele>156</ele>
        <time>2011-11-20T15:13:38Z</time>
      </trkpt>
      <trkpt lat="48.76937" lon="2.0553">
        <ele>156</ele>
        <time>2011-11-20T15:13:43Z</time>
      </trkpt>
      <trkpt lat="48.76926" lon="2.05522">
        <ele>156</ele>
        <time>2011-11-20T15:13:48Z</time>
      </trkpt>
      <trkpt lat="48.76914" lon="2.0553">
        <ele>157</ele>
        <time>2011-11-20T15:13:53Z</time>
      </trkpt>
      <trkpt lat="48.7691" lon="2.05536">
        <ele>157</ele>
        <time>2011-11-20T15:13:55Z</time>
      </trkpt>
      <trkpt lat="48.76907" lon="2.05541">
        <ele>157</ele>
        <time>2011-11-20T15:13:57Z</time>
      </trkpt>
      <trkpt lat="48.76904" lon="2.05547">
        <ele>157</ele>
        <time>2011-11-20T15:13:59Z</time>
      </trkpt>
      <trkpt lat="48.76896" lon="2.05559">
        <ele>157</ele>
        <time>2011-11-20T15:14:04Z</time>
      </trkpt>
      <trkpt lat="48.76887" lon="2.05567">
        <ele>157</ele>
        <time>2011-11-20T15:14:09Z</time>
      </trkpt>
      <trkpt lat="48.76876" lon="2.05574">
        <ele>157</ele>
        <time>2011-11-20T15:14:14Z</time>
      </trkpt>
      <trkpt lat="48.76867" lon="2.05583">
        <ele>158</ele>
        <time>2011-11-20T15:14:19Z</time>
      </trkpt>
      <trkpt lat="48.76856" lon="2.05593">
        <ele>158</ele>
        <time>2011-11-20T15:14:24Z</time>
      </trkpt>
      <trkpt lat="48.76848" lon="2.05605">
        <ele>158</ele>
        <time>2011-11-20T15:14:29Z</time>
      </trkpt>
      <trkpt lat="48.76838" lon="2.05617">
        <ele>158</ele>
        <time>2011-11-20T15:14:34Z</time>
      </trkpt>
      <trkpt lat="48.76829" lon="2.05628">
        <ele>160</ele>
        <time>2011-11-20T15:14:39Z</time>
      </trkpt>
      <trkpt lat="48.7682" lon="2.05638">
        <ele>160</ele>
        <time>2011-11-20T15:14:44Z</time>
      </trkpt>
      <trkpt lat="48.76811" lon="2.0565">
        <ele>160</ele>
        <time>2011-11-20T15:14:49Z</time>
      </trkpt>
      <trkpt lat="48.76802" lon="2.05656">
        <ele>160</ele>
        <time>2011-11-20T15:14:54Z</time>
      </trkpt>
      <trkpt lat="48.76792" lon="2.05648">
        <ele>160</ele>
        <time>2011-11-20T15:14:59Z</time>
      </trkpt>
      <trkpt lat="48.76785" lon="2.05637">
        <ele>161</ele>
        <time>2011-11-20T15:15:04Z</time>
      </trkpt>
      <trkpt lat="48.76775" lon="2.05629">
        <ele>161</ele>
        <time>2011-11-20T15:15:09Z</time>
      </trkpt>
      <trkpt lat="48.76767" lon="2.05619">
        <ele>160</ele>
        <time>2011-11-20T15:15:14Z</time>
      </trkpt>
      <trkpt lat="48.76757" lon="2.05611">
        <ele>160</ele>
        <time>2011-11-20T15:15:19Z</time>
      </trkpt>
      <trkpt lat="48.76747" lon="2.05599">
        <ele>161</ele>
        <time>2011-11-20T15:15:24Z</time>
      </trkpt>
      <trkpt lat="48.76738" lon="2.0559">
        <ele>160</ele>
        <time>2011-11-20T15:15:29Z</time>
      </trkpt>
      <trkpt lat="48.76729" lon="2.0558">
        <ele>160</ele>
        <time>2011-11-20T15:15:34Z</time>
      </trkpt>
      <trkpt lat="48.76719" lon="2.05572">
        <ele>160</ele>
        <time>2011-11-20T15:15:39Z</time>
      </trkpt>
      <trkpt lat="48.76709" lon="2.05561">
        <ele>160</ele>
        <time>2011-11-20T15:15:44Z</time>
      </trkpt>
      <trkpt lat="48.76699" lon="2.05551">
        <ele>160</ele>
        <time>2011-11-20T15:15:49Z</time>
      </trkpt>
      <trkpt lat="48.76687" lon="2.05546">
        <ele>160</ele>
        <time>2011-11-20T15:15:54Z</time>
      </trkpt>
      <trkpt lat="48.76679" lon="2.05535">
        <ele>160</ele>
        <time>2011-11-20T15:15:59Z</time>
      </trkpt>
      <trkpt lat="48.76669" lon="2.05526">
        <ele>160</ele>
        <time>2011-11-20T15:16:04Z</time>
      </trkpt>
      <trkpt lat="48.76659" lon="2.05516">
        <ele>160</ele>
        <time>2011-11-20T15:16:09Z</time>
      </trkpt>
      <trkpt lat="48.7665" lon="2.05507">
        <ele>160</ele>
        <time>2011-11-20T15:16:14Z</time>
      </trkpt>
      <trkpt lat="48.76639" lon="2.05497">
        <ele>159</ele>
        <time>2011-11-20T15:16:19Z</time>
      </trkpt>
      <trkpt lat="48.7663" lon="2.05486">
        <ele>159</ele>
        <time>2011-11-20T15:16:24Z</time>
      </trkpt>
      <trkpt lat="48.7662" lon="2.05479">
        <ele>159</ele>
        <time>2011-11-20T15:16:29Z</time>
      </trkpt>
      <trkpt lat="48.76608" lon="2.05469">
        <ele>159</ele>
        <time>2011-11-20T15:16:34Z</time>
      </trkpt>
      <trkpt lat="48.76598" lon="2.0546">
        <ele>159</ele>
        <time>2011-11-20T15:16:39Z</time>
      </trkpt>
      <trkpt lat="48.7659" lon="2.05451">
        <ele>159</ele>
        <time>2011-11-20T15:16:44Z</time>
      </trkpt>
      <trkpt lat="48.7658" lon="2.05441">
        <ele>159</ele>
        <time>2011-11-20T15:16:49Z</time>
      </trkpt>
      <trkpt lat="48.76571" lon="2.05431">
        <ele>159</ele>
        <time>2011-11-20T15:16:54Z</time>
      </trkpt>
      <trkpt lat="48.76562" lon="2.05421">
        <ele>159</ele>
        <time>2011-11-20T15:16:59Z</time>
      </trkpt>
      <trkpt lat="48.76552" lon="2.05412">
        <ele>160</ele>
        <time>2011-11-20T15:17:04Z</time>
      </trkpt>
      <trkpt lat="48.76543" lon="2.05405">
        <ele>160</ele>
        <time>2011-11-20T15:17:09Z</time>
      </trkpt>
      <trkpt lat="48.76533" lon="2.05395">
        <ele>160</ele>
        <time>2011-11-20T15:17:14Z</time>
      </trkpt>
      <trkpt lat="48.76523" lon="2.05384">
        <ele>160</ele>
        <time>2011-11-20T15:17:19Z</time>
      </trkpt>
      <trkpt lat="48.76513" lon="2.05375">
        <ele>160</ele>
        <time>2011-11-20T15:17:24Z</time>
      </trkpt>
      <trkpt lat="48.76504" lon="2.05366">
        <ele>161</ele>
        <time>2011-11-20T15:17:29Z</time>
      </trkpt>
      <trkpt lat="48.76495" lon="2.05359">
        <ele>161</ele>
        <time>2011-11-20T15:17:34Z</time>
      </trkpt>
      <trkpt lat="48.76486" lon="2.0535">
        <ele>162</ele>
        <time>2011-11-20T15:17:39Z</time>
      </trkpt>
      <trkpt lat="48.76481" lon="2.05346">
        <ele>162</ele>
        <time>2011-11-20T15:17:41Z</time>
      </trkpt>
      <trkpt lat="48.76477" lon="2.05342">
        <ele>162</ele>
        <time>2011-11-20T15:17:43Z</time>
      </trkpt>
      <trkpt lat="48.76467" lon="2.05332">
        <ele>162</ele>
        <time>2011-11-20T15:17:48Z</time>
      </trkpt>
      <trkpt lat="48.76457" lon="2.05323">
        <ele>162</ele>
        <time>2011-11-20T15:17:53Z</time>
      </trkpt>
      <trkpt lat="48.76452" lon="2.05319">
        <ele>162</ele>
        <time>2011-11-20T15:17:55Z</time>
      </trkpt>
      <trkpt lat="48.76448" lon="2.05316">
        <ele>162</ele>
        <time>2011-11-20T15:17:57Z</time>
      </trkpt>
      <trkpt lat="48.76438" lon="2.05305">
        <ele>162</ele>
        <time>2011-11-20T15:18:02Z</time>
      </trkpt>
      <trkpt lat="48.76428" lon="2.05302">
        <ele>163</ele>
        <time>2011-11-20T15:18:07Z</time>
      </trkpt>
      <trkpt lat="48.76419" lon="2.05296">
        <ele>163</ele>
        <time>2011-11-20T15:18:12Z</time>
      </trkpt>
      <trkpt lat="48.7641" lon="2.0529">
        <ele>163</ele>
        <time>2011-11-20T15:18:17Z</time>
      </trkpt>
      <trkpt lat="48.76411" lon="2.0528">
        <ele>163</ele>
        <time>2011-11-20T15:18:22Z</time>
      </trkpt>
      <trkpt lat="48.76417" lon="2.05265">
        <ele>163</ele>
        <time>2011-11-20T15:18:27Z</time>
      </trkpt>
      <trkpt lat="48.76424" lon="2.05253">
        <ele>164</ele>
        <time>2011-11-20T15:18:32Z</time>
      </trkpt>
      <trkpt lat="48.76429" lon="2.05238">
        <ele>163</ele>
        <time>2011-11-20T15:18:37Z</time>
      </trkpt>
      <trkpt lat="48.76434" lon="2.05223">
        <ele>163</ele>
        <time>2011-11-20T15:18:42Z</time>
      </trkpt>
      <trkpt lat="48.7644" lon="2.05222">
        <ele>163</ele>
        <time>2011-11-20T15:18:47Z</time>
      </trkpt>
      <trkpt lat="48.76445" lon="2.05212">
        <ele>163</ele>
        <time>2011-11-20T15:18:52Z</time>
      </trkpt>
      <trkpt lat="48.76451" lon="2.05199">
        <ele>163</ele>
        <time>2011-11-20T15:18:57Z</time>
      </trkpt>
      <trkpt lat="48.76457" lon="2.05185">
        <ele>162</ele>
        <time>2011-11-20T15:19:02Z</time>
      </trkpt>
      <trkpt lat="48.76463" lon="2.05174">
        <ele>162</ele>
        <time>2011-11-20T15:19:07Z</time>
      </trkpt>
      <trkpt lat="48.76463" lon="2.05167">
        <ele>161</ele>
        <time>2011-11-20T15:19:12Z</time>
      </trkpt>
      <trkpt lat="48.76462" lon="2.05174">
        <ele>162</ele>
        <time>2011-11-20T15:19:17Z</time>
      </trkpt>
      <trkpt lat="48.76461" lon="2.05168">
        <ele>162</ele>
        <time>2011-11-20T15:19:22Z</time>
      </trkpt>
      <trkpt lat="48.76462" lon="2.05171">
        <ele>162</ele>
        <time>2011-11-20T15:19:27Z</time>
      </trkpt>
      <trkpt lat="48.76463" lon="2.05163">
        <ele>161</ele>
        <time>2011-11-20T15:19:32Z</time>
      </trkpt>
      <trkpt lat="48.76458" lon="2.05151">
        <ele>161</ele>
        <time>2011-11-20T15:19:37Z</time>
      </trkpt>
      <trkpt lat="48.76451" lon="2.05144">
        <ele>162</ele>
        <time>2011-11-20T15:19:42Z</time>
      </trkpt>
      <trkpt lat="48.76457" lon="2.05124">
        <ele>161</ele>
        <time>2011-11-20T15:19:47Z</time>
      </trkpt>
      <trkpt lat="48.76463" lon="2.05107">
        <ele>161</ele>
        <time>2011-11-20T15:19:52Z</time>
      </trkpt>
      <trkpt lat="48.76468" lon="2.05093">
        <ele>161</ele>
        <time>2011-11-20T15:19:57Z</time>
      </trkpt>
      <trkpt lat="48.76475" lon="2.05079">
        <ele>160</ele>
        <time>2011-11-20T15:20:02Z</time>
      </trkpt>
      <trkpt lat="48.76481" lon="2.05063">
        <ele>160</ele>
        <time>2011-11-20T15:20:07Z</time>
      </trkpt>
      <trkpt lat="48.76486" lon="2.05048">
        <ele>160</ele>
        <time>2011-11-20T15:20:12Z</time>
      </trkpt>
      <trkpt lat="48.76493" lon="2.05033">
        <ele>160</ele>
        <time>2011-11-20T15:20:17Z</time>
      </trkpt>
      <trkpt lat="48.76502" lon="2.05022">
        <ele>159</ele>
        <time>2011-11-20T15:20:22Z</time>
      </trkpt>
      <trkpt lat="48.76495" lon="2.0501">
        <ele>159</ele>
        <time>2011-11-20T15:20:27Z</time>
      </trkpt>
      <trkpt lat="48.76485" lon="2.04994">
        <ele>160</ele>
        <time>2011-11-20T15:20:32Z</time>
      </trkpt>
      <trkpt lat="48.76478" lon="2.04978">
        <ele>160</ele>
        <time>2011-11-20T15:20:37Z</time>
      </trkpt>
      <trkpt lat="48.76473" lon="2.0496">
        <ele>160</ele>
        <time>2011-11-20T15:20:42Z</time>
      </trkpt>
      <trkpt lat="48.76473" lon="2.04941">
        <ele>160</ele>
        <time>2011-11-20T15:20:47Z</time>
      </trkpt>
      <trkpt lat="48.76474" lon="2.04924">
        <ele>160</ele>
        <time>2011-11-20T15:20:52Z</time>
      </trkpt>
      <trkpt lat="48.76478" lon="2.04908">
        <ele>161</ele>
        <time>2011-11-20T15:20:57Z</time>
      </trkpt>
      <trkpt lat="48.76484" lon="2.04893">
        <ele>161</ele>
        <time>2011-11-20T15:21:02Z</time>
      </trkpt>
      <trkpt lat="48.76479" lon="2.0488">
        <ele>161</ele>
        <time>2011-11-20T15:21:07Z</time>
      </trkpt>
      <trkpt lat="48.76469" lon="2.04872">
        <ele>161</ele>
        <time>2011-11-20T15:21:12Z</time>
      </trkpt>
      <trkpt lat="48.76458" lon="2.04862">
        <ele>161</ele>
        <time>2011-11-20T15:21:17Z</time>
      </trkpt>
      <trkpt lat="48.76448" lon="2.04855">
        <ele>160</ele>
        <time>2011-11-20T15:21:22Z</time>
      </trkpt>
      <trkpt lat="48.76442" lon="2.04844">
        <ele>160</ele>
        <time>2011-11-20T15:21:27Z</time>
      </trkpt>
      <trkpt lat="48.76445" lon="2.04828">
        <ele>159</ele>
        <time>2011-11-20T15:21:32Z</time>
      </trkpt>
      <trkpt lat="48.76452" lon="2.04813">
        <ele>159</ele>
        <time>2011-11-20T15:21:37Z</time>
      </trkpt>
      <trkpt lat="48.76458" lon="2.04799">
        <ele>159</ele>
        <time>2011-11-20T15:21:42Z</time>
      </trkpt>
      <trkpt lat="48.76464" lon="2.04784">
        <ele>158</ele>
        <time>2011-11-20T15:21:47Z</time>
      </trkpt>
      <trkpt lat="48.76471" lon="2.04768">
        <ele>158</ele>
        <time>2011-11-20T15:21:52Z</time>
      </trkpt>
      <trkpt lat="48.76473" lon="2.04762">
        <ele>157</ele>
        <time>2011-11-20T15:21:54Z</time>
      </trkpt>
      <trkpt lat="48.76481" lon="2.04747">
        <ele>156</ele>
        <time>2011-11-20T15:21:59Z</time>
      </trkpt>
      <trkpt lat="48.76487" lon="2.04732">
        <ele>156</ele>
        <time>2011-11-20T15:22:04Z</time>
      </trkpt>
      <trkpt lat="48.76493" lon="2.04716">
        <ele>156</ele>
        <time>2011-11-20T15:22:09Z</time>
      </trkpt>
      <trkpt lat="48.765" lon="2.04701">
        <ele>156</ele>
        <time>2011-11-20T15:22:14Z</time>
      </trkpt>
      <trkpt lat="48.76506" lon="2.04686">
        <ele>153</ele>
        <time>2011-11-20T15:22:19Z</time>
      </trkpt>
      <trkpt lat="48.76513" lon="2.04669">
        <ele>153</ele>
        <time>2011-11-20T15:22:24Z</time>
      </trkpt>
      <trkpt lat="48.76519" lon="2.04654">
        <ele>153</ele>
        <time>2011-11-20T15:22:29Z</time>
      </trkpt>
      <trkpt lat="48.76526" lon="2.04639">
        <ele>153</ele>
        <time>2011-11-20T15:22:34Z</time>
      </trkpt>
      <trkpt lat="48.76533" lon="2.04623">
        <ele>153</ele>
        <time>2011-11-20T15:22:39Z</time>
      </trkpt>
      <trkpt lat="48.76539" lon="2.04608">
        <ele>153</ele>
        <time>2011-11-20T15:22:44Z</time>
      </trkpt>
      <trkpt lat="48.76545" lon="2.04593">
        <ele>153</ele>
        <time>2011-11-20T15:22:49Z</time>
      </trkpt>
      <trkpt lat="48.76551" lon="2.04579">
        <ele>154</ele>
        <time>2011-11-20T15:22:54Z</time>
      </trkpt>
      <trkpt lat="48.76558" lon="2.04564">
        <ele>154</ele>
        <time>2011-11-20T15:22:59Z</time>
      </trkpt>
      <trkpt lat="48.76563" lon="2.0455">
        <ele>155</ele>
        <time>2011-11-20T15:23:04Z</time>
      </trkpt>
      <trkpt lat="48.76569" lon="2.04536">
        <ele>155</ele>
        <time>2011-11-20T15:23:09Z</time>
      </trkpt>
      <trkpt lat="48.76576" lon="2.04521">
        <ele>155</ele>
        <time>2011-11-20T15:23:14Z</time>
      </trkpt>
      <trkpt lat="48.76582" lon="2.04506">
        <ele>156</ele>
        <time>2011-11-20T15:23:19Z</time>
      </trkpt>
      <trkpt lat="48.76588" lon="2.04491">
        <ele>156</ele>
        <time>2011-11-20T15:23:24Z</time>
      </trkpt>
      <trkpt lat="48.76593" lon="2.04477">
        <ele>157</ele>
        <time>2011-11-20T15:23:29Z</time>
      </trkpt>
      <trkpt lat="48.76599" lon="2.04464">
        <ele>157</ele>
        <time>2011-11-20T15:23:34Z</time>
      </trkpt>
      <trkpt lat="48.76605" lon="2.04449">
        <ele>157</ele>
        <time>2011-11-20T15:23:39Z</time>
      </trkpt>
      <trkpt lat="48.76613" lon="2.04436">
        <ele>157</ele>
        <time>2011-11-20T15:23:44Z</time>
      </trkpt>
      <trkpt lat="48.76619" lon="2.04421">
        <ele>157</ele>
        <time>2011-11-20T15:23:49Z</time>
      </trkpt>
      <trkpt lat="48.76625" lon="2.04406">
        <ele>158</ele>
        <time>2011-11-20T15:23:54Z</time>
      </trkpt>
      <trkpt lat="48.76631" lon="2.04391">
        <ele>158</ele>
        <time>2011-11-20T15:23:59Z</time>
      </trkpt>
      <trkpt lat="48.76638" lon="2.04376">
        <ele>158</ele>
        <time>2011-11-20T15:24:04Z</time>
      </trkpt>
      <trkpt lat="48.76643" lon="2.04361">
        <ele>159</ele>
        <time>2011-11-20T15:24:09Z</time>
      </trkpt>
      <trkpt lat="48.76649" lon="2.04347">
        <ele>159</ele>
        <time>2011-11-20T15:24:14Z</time>
      </trkpt>
      <trkpt lat="48.76654" lon="2.04333">
        <ele>160</ele>
        <time>2011-11-20T15:24:19Z</time>
      </trkpt>
      <trkpt lat="48.7666" lon="2.04318">
        <ele>160</ele>
        <time>2011-11-20T15:24:24Z</time>
      </trkpt>
      <trkpt lat="48.76666" lon="2.04304">
        <ele>160</ele>
        <time>2011-11-20T15:24:29Z</time>
      </trkpt>
      <trkpt lat="48.76671" lon="2.04291">
        <ele>161</ele>
        <time>2011-11-20T15:24:34Z</time>
      </trkpt>
      <trkpt lat="48.7668" lon="2.0429">
        <ele>161</ele>
        <time>2011-11-20T15:24:39Z</time>
      </trkpt>
      <trkpt lat="48.76691" lon="2.04299">
        <ele>161</ele>
        <time>2011-11-20T15:24:44Z</time>
      </trkpt>
      <trkpt lat="48.767" lon="2.04309">
        <ele>161</ele>
        <time>2011-11-20T15:24:49Z</time>
      </trkpt>
      <trkpt lat="48.76709" lon="2.04318">
        <ele>161</ele>
        <time>2011-11-20T15:24:54Z</time>
      </trkpt>
      <trkpt lat="48.76718" lon="2.04328">
        <ele>161</ele>
        <time>2011-11-20T15:24:59Z</time>
      </trkpt>
      <trkpt lat="48.76727" lon="2.04337">
        <ele>159</ele>
        <time>2011-11-20T15:25:04Z</time>
      </trkpt>
      <trkpt lat="48.76737" lon="2.04347">
        <ele>159</ele>
        <time>2011-11-20T15:25:09Z</time>
      </trkpt>
      <trkpt lat="48.76747" lon="2.04356">
        <ele>159</ele>
        <time>2011-11-20T15:25:14Z</time>
      </trkpt>
      <trkpt lat="48.76757" lon="2.04365">
        <ele>159</ele>
        <time>2011-11-20T15:25:19Z</time>
      </trkpt>
      <trkpt lat="48.76766" lon="2.04375">
        <ele>159</ele>
        <time>2011-11-20T15:25:24Z</time>
      </trkpt>
      <trkpt lat="48.76776" lon="2.04385">
        <ele>159</ele>
        <time>2011-11-20T15:25:29Z</time>
      </trkpt>
      <trkpt lat="48.76786" lon="2.04395">
        <ele>159</ele>
        <time>2011-11-20T15:25:34Z</time>
      </trkpt>
      <trkpt lat="48.76797" lon="2.04404">
        <ele>159</ele>
        <time>2011-11-20T15:25:39Z</time>
      </trkpt>
      <trkpt lat="48.76806" lon="2.04413">
        <ele>159</ele>
        <time>2011-11-20T15:25:44Z</time>
      </trkpt>
      <trkpt lat="48.76816" lon="2.04422">
        <ele>158</ele>
        <time>2011-11-20T15:25:49Z</time>
      </trkpt>
      <trkpt lat="48.76827" lon="2.04432">
        <ele>158</ele>
        <time>2011-11-20T15:25:54Z</time>
      </trkpt>
      <trkpt lat="48.76837" lon="2.04441">
        <ele>159</ele>
        <time>2011-11-20T15:25:59Z</time>
      </trkpt>
      <trkpt lat="48.76841" lon="2.04445">
        <ele>159</ele>
        <time>2011-11-20T15:26:01Z</time>
      </trkpt>
      <trkpt lat="48.76851" lon="2.04455">
        <ele>159</ele>
        <time>2011-11-20T15:26:06Z</time>
      </trkpt>
      <trkpt lat="48.76856" lon="2.04459">
        <ele>159</ele>
        <time>2011-11-20T15:26:08Z</time>
      </trkpt>
      <trkpt lat="48.76865" lon="2.04469">
        <ele>159</ele>
        <time>2011-11-20T15:26:13Z</time>
      </trkpt>
      <trkpt lat="48.76874" lon="2.04478">
        <ele>159</ele>
        <time>2011-11-20T15:26:18Z</time>
      </trkpt>
      <trkpt lat="48.76883" lon="2.04487">
        <ele>159</ele>
        <time>2011-11-20T15:26:23Z</time>
      </trkpt>
      <trkpt lat="48.76891" lon="2.04497">
        <ele>159</ele>
        <time>2011-11-20T15:26:28Z</time>
      </trkpt>
      <trkpt lat="48.76895" lon="2.0451">
        <ele>158</ele>
        <time>2011-11-20T15:26:33Z</time>
      </trkpt>
      <trkpt lat="48.76891" lon="2.04525">
        <ele>158</ele>
        <time>2011-11-20T15:26:38Z</time>
      </trkpt>
      <trkpt lat="48.76885" lon="2.04539">
        <ele>158</ele>
        <time>2011-11-20T15:26:43Z</time>
      </trkpt>
      <trkpt lat="48.76879" lon="2.04554">
        <ele>157</ele>
        <time>2011-11-20T15:26:48Z</time>
      </trkpt>
      <trkpt lat="48.76873" lon="2.04569">
        <ele>157</ele>
        <time>2011-11-20T15:26:53Z</time>
      </trkpt>
      <trkpt lat="48.76865" lon="2.04584">
        <ele>158</ele>
        <time>2011-11-20T15:26:58Z</time>
      </trkpt>
      <trkpt lat="48.76859" lon="2.046">
        <ele>158</ele>
        <time>2011-11-20T15:27:03Z</time>
      </trkpt>
      <trkpt lat="48.76857" lon="2.04606">
        <ele>158</ele>
        <time>2011-11-20T15:27:05Z</time>
      </trkpt>
      <trkpt lat="48.7685" lon="2.04623">
        <ele>158</ele>
        <time>2011-11-20T15:27:10Z</time>
      </trkpt>
      <trkpt lat="48.76844" lon="2.04639">
        <ele>159</ele>
        <time>2011-11-20T15:27:15Z</time>
      </trkpt>
      <trkpt lat="48.76841" lon="2.04645">
        <ele>159</ele>
        <time>2011-11-20T15:27:17Z</time>
      </trkpt>
      <trkpt lat="48.76838" lon="2.04652">
        <ele>160</ele>
        <time>2011-11-20T15:27:19Z</time>
      </trkpt>
      <trkpt lat="48.76835" lon="2.04658">
        <ele>160</ele>
        <time>2011-11-20T15:27:21Z</time>
      </trkpt>
      <trkpt lat="48.76832" lon="2.04665">
        <ele>161</ele>
        <time>2011-11-20T15:27:23Z</time>
      </trkpt>
      <trkpt lat="48.76829" lon="2.04671">
        <ele>161</ele>
        <time>2011-11-20T15:27:25Z</time>
      </trkpt>
      <trkpt lat="48.76827" lon="2.04678">
        <ele>161</ele>
        <time>2011-11-20T15:27:27Z</time>
      </trkpt>
      <trkpt lat="48.7682" lon="2.04694">
        <ele>161</ele>
        <time>2011-11-20T15:27:32Z</time>
      </trkpt>
      <trkpt lat="48.76818" lon="2.04701">
        <ele>161</ele>
        <time>2011-11-20T15:27:34Z</time>
      </trkpt>
      <trkpt lat="48.76814" lon="2.04708">
        <ele>161</ele>
        <time>2011-11-20T15:27:36Z</time>
      </trkpt>
      <trkpt lat="48.76812" lon="2.04714">
        <ele>160</ele>
        <time>2011-11-20T15:27:38Z</time>
      </trkpt>
      <trkpt lat="48.76809" lon="2.04721">
        <ele>160</ele>
        <time>2011-11-20T15:27:40Z</time>
      </trkpt>
      <trkpt lat="48.76806" lon="2.04728">
        <ele>160</ele>
        <time>2011-11-20T15:27:42Z</time>
      </trkpt>
      <trkpt lat="48.76804" lon="2.04734">
        <ele>160</ele>
        <time>2011-11-20T15:27:44Z</time>
      </trkpt>
      <trkpt lat="48.76801" lon="2.0474">
        <ele>160</ele>
        <time>2011-11-20T15:27:46Z</time>
      </trkpt>
      <trkpt lat="48.76794" lon="2.04756">
        <ele>159</ele>
        <time>2011-11-20T15:27:51Z</time>
      </trkpt>
      <trkpt lat="48.76791" lon="2.04763">
        <ele>158</ele>
        <time>2011-11-20T15:27:53Z</time>
      </trkpt>
      <trkpt lat="48.7679" lon="2.04769">
        <ele>158</ele>
        <time>2011-11-20T15:27:55Z</time>
      </trkpt>
      <trkpt lat="48.76792" lon="2.04785">
        <ele>158</ele>
        <time>2011-11-20T15:28:00Z</time>
      </trkpt>
      <trkpt lat="48.76794" lon="2.04798">
        <ele>158</ele>
        <time>2011-11-20T15:28:05Z</time>
      </trkpt>
      <trkpt lat="48.76784" lon="2.04796">
        <ele>157</ele>
        <time>2011-11-20T15:28:10Z</time>
      </trkpt>
      <trkpt lat="48.76775" lon="2.04804">
        <ele>157</ele>
        <time>2011-11-20T15:28:15Z</time>
      </trkpt>
      <trkpt lat="48.76769" lon="2.0482">
        <ele>156</ele>
        <time>2011-11-20T15:28:20Z</time>
      </trkpt>
      <trkpt lat="48.76761" lon="2.04836">
        <ele>154</ele>
        <time>2011-11-20T15:28:25Z</time>
      </trkpt>
      <trkpt lat="48.76758" lon="2.04842">
        <ele>154</ele>
        <time>2011-11-20T15:28:27Z</time>
      </trkpt>
      <trkpt lat="48.76751" lon="2.04857">
        <ele>155</ele>
        <time>2011-11-20T15:28:32Z</time>
      </trkpt>
      <trkpt lat="48.76745" lon="2.04872">
        <ele>155</ele>
        <time>2011-11-20T15:28:37Z</time>
      </trkpt>
      <trkpt lat="48.76739" lon="2.04888">
        <ele>156</ele>
        <time>2011-11-20T15:28:42Z</time>
      </trkpt>
      <trkpt lat="48.76736" lon="2.04895">
        <ele>156</ele>
        <time>2011-11-20T15:28:44Z</time>
      </trkpt>
      <trkpt lat="48.76733" lon="2.04902">
        <ele>156</ele>
        <time>2011-11-20T15:28:46Z</time>
      </trkpt>
      <trkpt lat="48.7673" lon="2.04908">
        <ele>157</ele>
        <time>2011-11-20T15:28:48Z</time>
      </trkpt>
      <trkpt lat="48.76728" lon="2.04915">
        <ele>157</ele>
        <time>2011-11-20T15:28:50Z</time>
      </trkpt>
      <trkpt lat="48.76725" lon="2.04921">
        <ele>158</ele>
        <time>2011-11-20T15:28:52Z</time>
      </trkpt>
      <trkpt lat="48.76722" lon="2.04927">
        <ele>158</ele>
        <time>2011-11-20T15:28:54Z</time>
      </trkpt>
      <trkpt lat="48.76715" lon="2.04943">
        <ele>158</ele>
        <time>2011-11-20T15:28:59Z</time>
      </trkpt>
      <trkpt lat="48.76708" lon="2.0496">
        <ele>158</ele>
        <time>2011-11-20T15:29:04Z</time>
      </trkpt>
      <trkpt lat="48.76706" lon="2.04967">
        <ele>158</ele>
        <time>2011-11-20T15:29:06Z</time>
      </trkpt>
      <trkpt lat="48.76703" lon="2.04973">
        <ele>158</ele>
        <time>2011-11-20T15:29:08Z</time>
      </trkpt>
      <trkpt lat="48.76696" lon="2.04989">
        <ele>157</ele>
        <time>2011-11-20T15:29:13Z</time>
      </trkpt>
      <trkpt lat="48.76691" lon="2.05004">
        <ele>158</ele>
        <time>2011-11-20T15:29:18Z</time>
      </trkpt>
      <trkpt lat="48.76685" lon="2.05019">
        <ele>158</ele>
        <time>2011-11-20T15:29:23Z</time>
      </trkpt>
      <trkpt lat="48.76679" lon="2.05034">
        <ele>158</ele>
        <time>2011-11-20T15:29:28Z</time>
      </trkpt>
      <trkpt lat="48.76674" lon="2.05049">
        <ele>158</ele>
        <time>2011-11-20T15:29:33Z</time>
      </trkpt>
      <trkpt lat="48.76667" lon="2.05061">
        <ele>158</ele>
        <time>2011-11-20T15:29:38Z</time>
      </trkpt>
      <trkpt lat="48.76656" lon="2.0506">
        <ele>158</ele>
        <time>2011-11-20T15:29:43Z</time>
      </trkpt>
      <trkpt lat="48.76646" lon="2.05048">
        <ele>158</ele>
        <time>2011-11-20T15:29:48Z</time>
      </trkpt>
      <trkpt lat="48.76637" lon="2.05038">
        <ele>158</ele>
        <time>2011-11-20T15:29:53Z</time>
      </trkpt>
      <trkpt lat="48.76627" lon="2.05028">
        <ele>158</ele>
        <time>2011-11-20T15:29:58Z</time>
      </trkpt>
      <trkpt lat="48.76622" lon="2.05025">
        <ele>158</ele>
        <time>2011-11-20T15:30:00Z</time>
      </trkpt>
      <trkpt lat="48.76614" lon="2.05033">
        <ele>158</ele>
        <time>2011-11-20T15:30:05Z</time>
      </trkpt>
      <trkpt lat="48.76607" lon="2.05047">
        <ele>158</ele>
        <time>2011-11-20T15:30:10Z</time>
      </trkpt>
      <trkpt lat="48.76598" lon="2.05059">
        <ele>158</ele>
        <time>2011-11-20T15:30:15Z</time>
      </trkpt>
      <trkpt lat="48.76588" lon="2.05067">
        <ele>159</ele>
        <time>2011-11-20T15:30:20Z</time>
      </trkpt>
      <trkpt lat="48.76584" lon="2.05069">
        <ele>159</ele>
        <time>2011-11-20T15:30:22Z</time>
      </trkpt>
      <trkpt lat="48.76579" lon="2.05071">
        <ele>159</ele>
        <time>2011-11-20T15:30:24Z</time>
      </trkpt>
      <trkpt lat="48.76567" lon="2.05073">
        <ele>159</ele>
        <time>2011-11-20T15:30:29Z</time>
      </trkpt>
      <trkpt lat="48.76562" lon="2.05072">
        <ele>159</ele>
        <time>2011-11-20T15:30:31Z</time>
      </trkpt>
      <trkpt lat="48.76558" lon="2.05071">
        <ele>159</ele>
        <time>2011-11-20T15:30:33Z</time>
      </trkpt>
      <trkpt lat="48.76547" lon="2.05067">
        <ele>159</ele>
        <time>2011-11-20T15:30:38Z</time>
      </trkpt>
      <trkpt lat="48.76537" lon="2.05061">
        <ele>159</ele>
        <time>2011-11-20T15:30:43Z</time>
      </trkpt>
      <trkpt lat="48.76529" lon="2.05073">
        <ele>159</ele>
        <time>2011-11-20T15:30:48Z</time>
      </trkpt>
      <trkpt lat="48.76525" lon="2.05088">
        <ele>160</ele>
        <time>2011-11-20T15:30:53Z</time>
      </trkpt>
      <trkpt lat="48.76518" lon="2.05101">
        <ele>160</ele>
        <time>2011-11-20T15:30:58Z</time>
      </trkpt>
      <trkpt lat="48.76513" lon="2.05116">
        <ele>160</ele>
        <time>2011-11-20T15:31:03Z</time>
      </trkpt>
      <trkpt lat="48.76506" lon="2.05132">
        <ele>160</ele>
        <time>2011-11-20T15:31:08Z</time>
      </trkpt>
      <trkpt lat="48.76504" lon="2.05139">
        <ele>160</ele>
        <time>2011-11-20T15:31:10Z</time>
      </trkpt>
      <trkpt lat="48.765" lon="2.05154">
        <ele>161</ele>
        <time>2011-11-20T15:31:15Z</time>
      </trkpt>
      <trkpt lat="48.76494" lon="2.05169">
        <ele>161</ele>
        <time>2011-11-20T15:31:20Z</time>
      </trkpt>
      <trkpt lat="48.76479" lon="2.05171">
        <ele>162</ele>
        <time>2011-11-20T15:31:25Z</time>
      </trkpt>
      <trkpt lat="48.76473" lon="2.05169">
        <ele>162</ele>
        <time>2011-11-20T15:31:30Z</time>
      </trkpt>
      <trkpt lat="48.76466" lon="2.05172">
        <ele>162</ele>
        <time>2011-11-20T15:31:35Z</time>
      </trkpt>
      <trkpt lat="48.76464" lon="2.0517">
        <ele>162</ele>
        <time>2011-11-20T15:31:40Z</time>
      </trkpt>
      <trkpt lat="48.76464" lon="2.05175">
        <ele>162</ele>
        <time>2011-11-20T15:31:45Z</time>
      </trkpt>
      <trkpt lat="48.76461" lon="2.05169">
        <ele>162</ele>
        <time>2011-11-20T15:31:50Z</time>
      </trkpt>
      <trkpt lat="48.76465" lon="2.05173">
        <ele>162</ele>
        <time>2011-11-20T15:31:55Z</time>
      </trkpt>
      <trkpt lat="48.76461" lon="2.0518">
        <ele>162</ele>
        <time>2011-11-20T15:32:00Z</time>
      </trkpt>
      <trkpt lat="48.76455" lon="2.05194">
        <ele>162</ele>
        <time>2011-11-20T15:32:05Z</time>
      </trkpt>
      <trkpt lat="48.76449" lon="2.05208">
        <ele>163</ele>
        <time>2011-11-20T15:32:10Z</time>
      </trkpt>
      <trkpt lat="48.76446" lon="2.05222">
        <ele>163</ele>
        <time>2011-11-20T15:32:15Z</time>
      </trkpt>
      <trkpt lat="48.76454" lon="2.05234">
        <ele>163</ele>
        <time>2011-11-20T15:32:20Z</time>
      </trkpt>
      <trkpt lat="48.76456" lon="2.05242">
        <ele>163</ele>
        <time>2011-11-20T15:32:25Z</time>
      </trkpt>
      <trkpt lat="48.76446" lon="2.05232">
        <ele>163</ele>
        <time>2011-11-20T15:32:30Z</time>
      </trkpt>
      <trkpt lat="48.76437" lon="2.05224">
        <ele>163</ele>
        <time>2011-11-20T15:32:35Z</time>
      </trkpt>
      <trkpt lat="48.76434" lon="2.05231">
        <ele>163</ele>
        <time>2011-11-20T15:32:40Z</time>
      </trkpt>
      <trkpt lat="48.76429" lon="2.05244">
        <ele>163</ele>
        <time>2011-11-20T15:32:45Z</time>
      </trkpt>
      <trkpt lat="48.76423" lon="2.05254">
        <ele>164</ele>
        <time>2011-11-20T15:32:50Z</time>
      </trkpt>
      <trkpt lat="48.76415" lon="2.05269">
        <ele>163</ele>
        <time>2011-11-20T15:32:55Z</time>
      </trkpt>
      <trkpt lat="48.76408" lon="2.05284">
        <ele>163</ele>
        <time>2011-11-20T15:33:00Z</time>
      </trkpt>
      <trkpt lat="48.76403" lon="2.05299">
        <ele>163</ele>
        <time>2011-11-20T15:33:05Z</time>
      </trkpt>
      <trkpt lat="48.76401" lon="2.05303">
        <ele>163</ele>
        <time>2011-11-20T15:33:07Z</time>
      </trkpt>
      <trkpt lat="48.76396" lon="2.05317">
        <ele>163</ele>
        <time>2011-11-20T15:33:12Z</time>
      </trkpt>
      <trkpt lat="48.76402" lon="2.05333">
        <ele>162</ele>
        <time>2011-11-20T15:33:17Z</time>
      </trkpt>
      <trkpt lat="48.76409" lon="2.05343">
        <ele>162</ele>
        <time>2011-11-20T15:33:22Z</time>
      </trkpt>
      <trkpt lat="48.76415" lon="2.05343">
        <ele>162</ele>
        <time>2011-11-20T15:33:27Z</time>
      </trkpt>
    </trkseg>
  </trk>
</gpx>